createdAt,value
2018-03-14T00:00:42.242Z,94.00
2018-03-14T00:03:08.323Z,93.99
2018-03-14T00:05:34.529Z,94.04
2018-03-14T00:08:00.574Z,93.97
2018-03-14T00:10:26.598Z,93.99
2018-03-14T00:12:53.290Z,94.05
2018-03-14T00:15:19.438Z,94.03
2018-03-14T00:17:45.600Z,94.04
2018-03-14T00:20:11.635Z,94.11
2018-03-14T00:22:37.894Z,94.05
2018-03-14T00:25:03.913Z,94.13
2018-03-14T00:27:30.101Z,94.14
2018-03-14T00:29:56.141Z,94.12
2018-03-14T00:32:22.198Z,94.13
2018-03-14T00:34:48.213Z,94.11
2018-03-14T00:37:14.285Z,94.24
2018-03-14T00:39:40.386Z,94.28
2018-03-14T00:42:06.443Z,94.32
2018-03-14T00:44:32.507Z,94.34
2018-03-14T00:46:58.594Z,94.36
2018-03-14T00:49:24.666Z,94.35
2018-03-14T00:51:50.708Z,94.43
2018-03-14T00:54:16.757Z,94.35
2018-03-14T00:56:42.887Z,94.37
2018-03-14T00:59:08.943Z,94.51
2018-03-14T01:01:35.129Z,94.46
2018-03-14T01:04:01.357Z,94.55
2018-03-14T01:06:27.644Z,94.50
2018-03-14T01:08:53.677Z,94.53
2018-03-14T01:11:19.700Z,94.51
2018-03-14T01:13:45.930Z,94.51
2018-03-14T01:16:12.177Z,94.47
2018-03-14T01:18:38.212Z,94.46
2018-03-14T01:21:04.286Z,94.48
2018-03-14T01:23:30.360Z,94.57
2018-03-14T01:25:56.421Z,94.59
2018-03-14T01:28:22.460Z,94.54
2018-03-14T01:30:48.552Z,94.57
2018-03-14T01:33:14.703Z,94.60
2018-03-14T01:35:40.808Z,94.61
2018-03-14T01:38:06.875Z,94.57
2018-03-14T01:40:32.957Z,94.55
2018-03-14T01:42:59.026Z,94.54
2018-03-14T01:45:25.090Z,94.62
2018-03-14T01:47:51.258Z,94.63
2018-03-14T01:50:17.479Z,94.65
2018-03-14T01:52:43.879Z,94.61
2018-03-14T01:55:10.016Z,94.56
2018-03-14T01:57:36.121Z,94.60
2018-03-14T02:00:02.167Z,94.64
2018-03-14T02:02:28.226Z,94.59
2018-03-14T02:04:54.303Z,94.58
2018-03-14T02:07:20.319Z,94.59
2018-03-14T02:09:46.394Z,94.64
2018-03-14T02:12:12.521Z,94.63
2018-03-14T02:14:38.566Z,94.62
2018-03-14T02:17:04.611Z,94.68
2018-03-14T02:19:30.762Z,94.63
2018-03-14T02:21:56.866Z,94.65
2018-03-14T02:24:22.933Z,94.65
2018-03-14T02:26:49.029Z,94.67
2018-03-14T02:29:15.021Z,94.65
2018-03-14T02:31:41.137Z,94.63
2018-03-14T02:34:07.200Z,94.67
2018-03-14T02:36:45.438Z,94.67
2018-03-14T02:39:11.634Z,94.69
2018-03-14T02:41:37.699Z,94.71
2018-03-14T02:44:03.720Z,94.71
2018-03-14T02:46:29.835Z,94.66
2018-03-14T02:48:55.870Z,94.71
2018-03-14T02:51:21.904Z,94.73
2018-03-14T02:53:47.975Z,94.74
2018-03-14T02:56:14.190Z,94.70
2018-03-14T02:58:40.243Z,94.71
2018-03-14T03:01:06.255Z,94.70
2018-03-14T03:03:32.314Z,94.64
2018-03-14T03:05:58.376Z,94.67
2018-03-14T03:08:24.401Z,94.67
2018-03-14T03:10:50.434Z,94.74
2018-03-14T03:13:16.479Z,94.75
2018-03-14T03:15:42.499Z,94.74
2018-03-14T03:18:08.592Z,94.73
2018-03-14T03:20:34.639Z,94.79
2018-03-14T03:23:00.777Z,94.76
2018-03-14T03:25:27.603Z,94.73
2018-03-14T03:27:53.795Z,94.75
2018-03-14T03:30:19.822Z,94.75
2018-03-14T03:32:45.874Z,94.67
2018-03-14T03:35:11.941Z,94.71
2018-03-14T03:37:38.940Z,94.67
2018-03-14T03:40:05.026Z,94.67
2018-03-14T03:42:31.039Z,94.70
2018-03-14T03:44:57.089Z,94.71
2018-03-14T03:47:23.241Z,94.71
2018-03-14T03:49:49.386Z,94.72
2018-03-14T03:52:15.599Z,94.70
2018-03-14T03:54:41.634Z,94.67
2018-03-14T03:57:07.671Z,94.69
2018-03-14T03:59:33.881Z,94.70
2018-03-14T04:01:59.906Z,94.68
2018-03-14T04:04:25.949Z,94.65
2018-03-14T04:06:51.984Z,94.67
2018-03-14T04:09:19.031Z,94.65
2018-03-14T04:11:45.303Z,94.63
2018-03-14T04:14:11.395Z,94.60
2018-03-14T04:16:37.570Z,94.57
2018-03-14T04:19:03.585Z,94.56
2018-03-14T04:21:29.594Z,94.57
2018-03-14T04:23:56.136Z,94.59
2018-03-14T04:26:22.295Z,94.60
2018-03-14T04:28:48.311Z,94.59
2018-03-14T04:31:14.360Z,94.55
2018-03-14T04:33:40.414Z,94.55
2018-03-14T04:36:06.479Z,94.53
2018-03-14T04:38:32.544Z,94.54
2018-03-14T04:40:58.537Z,94.52
2018-03-14T04:43:24.538Z,94.52
2018-03-14T04:45:50.603Z,94.48
2018-03-14T04:48:16.728Z,94.48
2018-03-14T04:50:42.743Z,94.45
2018-03-14T04:53:08.796Z,94.43
2018-03-14T04:55:34.850Z,94.43
2018-03-14T04:58:00.865Z,94.45
2018-03-14T05:00:26.968Z,94.44
2018-03-14T05:02:53.016Z,94.43
2018-03-14T05:05:19.050Z,94.45
2018-03-14T05:07:45.101Z,94.44
2018-03-14T05:10:11.267Z,94.45
2018-03-14T05:12:37.524Z,94.48
2018-03-14T05:15:03.605Z,94.50
2018-03-14T05:17:29.617Z,94.51
2018-03-14T05:19:55.742Z,94.53
2018-03-14T05:22:21.812Z,94.54
2018-03-14T05:24:47.802Z,94.55
2018-03-14T05:27:13.919Z,94.57
2018-03-14T05:29:40.038Z,94.59
2018-03-14T05:32:06.071Z,94.61
2018-03-14T05:34:32.164Z,94.60
2018-03-14T05:36:58.189Z,94.61
2018-03-14T05:39:24.214Z,94.64
2018-03-14T05:41:50.220Z,94.67
2018-03-14T05:44:16.295Z,94.74
2018-03-14T05:46:42.414Z,94.82
2018-03-14T05:49:08.442Z,94.87
2018-03-14T05:51:34.472Z,94.94
2018-03-14T05:54:00.497Z,95.00
2018-03-14T05:56:26.558Z,95.03
2018-03-14T05:58:52.578Z,95.07
2018-03-14T06:01:18.743Z,95.05
2018-03-14T06:03:44.756Z,95.04
2018-03-14T06:06:10.759Z,95.10
2018-03-14T06:08:36.847Z,95.10
2018-03-14T06:11:02.879Z,95.11
2018-03-14T06:13:28.996Z,95.02
2018-03-14T06:15:55.013Z,95.06
2018-03-14T06:18:21.049Z,95.01
2018-03-14T06:20:47.176Z,95.03
2018-03-14T06:23:13.465Z,94.98
2018-03-14T06:25:39.611Z,94.95
2018-03-14T06:28:05.902Z,94.91
2018-03-14T06:30:31.922Z,94.90
2018-03-14T06:32:57.966Z,94.87
2018-03-14T06:35:24.171Z,94.77
2018-03-14T06:37:50.228Z,94.69
2018-03-14T06:40:16.260Z,94.53
2018-03-14T06:42:42.325Z,94.51
2018-03-14T06:45:08.343Z,94.43
2018-03-14T06:47:34.375Z,94.36
2018-03-14T06:50:00.382Z,94.35
2018-03-14T06:52:26.409Z,94.25
2018-03-14T06:54:52.442Z,94.19
2018-03-14T06:57:18.499Z,94.02
2018-03-14T06:59:56.682Z,93.94
2018-03-14T07:02:35.018Z,93.83
2018-03-14T07:05:13.549Z,93.61
2018-03-14T07:07:39.614Z,93.45
2018-03-14T07:10:05.617Z,93.23
2018-03-14T07:12:31.670Z,93.05
2018-03-14T07:14:58.265Z,93.00
2018-03-14T07:17:24.305Z,92.90
2018-03-14T07:19:50.350Z,92.72
2018-03-14T07:22:16.378Z,92.64
2018-03-14T07:24:42.420Z,92.51
2018-03-14T07:27:08.423Z,92.34
2018-03-14T07:29:34.548Z,92.22
2018-03-14T07:32:00.537Z,92.12
2018-03-14T07:34:26.561Z,91.90
2018-03-14T07:36:52.669Z,91.68
2018-03-14T07:39:18.685Z,91.59
2018-03-14T07:41:44.728Z,91.33
2018-03-14T07:44:10.773Z,91.29
2018-03-14T07:46:37.534Z,91.10
2018-03-14T07:49:03.646Z,91.01
2018-03-14T07:51:29.692Z,90.99
2018-03-14T07:53:55.771Z,90.91
2018-03-14T07:56:21.805Z,90.88
2018-03-14T07:58:47.824Z,90.79
2018-03-14T08:01:13.867Z,90.74
2018-03-14T08:03:40.154Z,90.58
2018-03-14T08:06:06.325Z,90.52
2018-03-14T08:08:32.324Z,90.62
2018-03-14T08:10:58.351Z,90.65
2018-03-14T08:13:24.447Z,90.57
2018-03-14T08:15:50.369Z,90.72
2018-03-14T08:18:16.415Z,90.46
2018-03-14T08:20:42.469Z,90.41
2018-03-14T08:23:08.632Z,90.22
2018-03-14T08:25:34.634Z,90.21
2018-03-14T08:28:00.820Z,89.93
2018-03-14T08:30:27.374Z,89.89
2018-03-14T08:32:53.625Z,88.23
2018-03-14T08:35:19.764Z,87.03
2018-03-14T08:37:45.839Z,83.18
2018-03-14T08:40:11.917Z,81.14
2018-03-14T08:42:38.017Z,80.87
2018-03-14T08:45:04.164Z,81.97
2018-03-14T08:47:30.331Z,82.86
2018-03-14T08:49:56.336Z,84.64
2018-03-14T08:52:22.326Z,79.88
2018-03-14T08:54:48.350Z,80.37
2018-03-14T08:57:14.458Z,81.24
2018-03-14T08:59:40.477Z,81.04
2018-03-14T09:02:06.513Z,79.31
2018-03-14T09:04:32.539Z,82.64
2018-03-14T09:06:58.571Z,74.61
2018-03-14T09:09:24.671Z,69.86
2018-03-14T09:11:50.764Z,73.03
2018-03-14T09:14:16.846Z,65.45
2018-03-14T09:16:42.910Z,73.72
2018-03-14T09:19:08.952Z,72.44
2018-03-14T09:21:35.030Z,75.01
2018-03-14T09:24:01.096Z,76.68
2018-03-14T09:26:27.141Z,74.17
2018-03-14T09:28:53.369Z,67.71
2018-03-14T09:31:19.386Z,73.43
2018-03-14T09:33:45.489Z,73.65
2018-03-14T09:36:11.494Z,66.25
2018-03-14T09:38:37.580Z,61.18
2018-03-14T09:41:04.602Z,66.21
2018-03-14T09:43:30.693Z,52.07
2018-03-14T09:45:56.870Z,47.16
2018-03-14T09:48:22.877Z,45.90
2018-03-14T09:50:48.924Z,51.52
2018-03-14T09:53:15.005Z,45.56
2018-03-14T09:55:41.020Z,37.68
2018-03-14T09:58:07.061Z,38.81
2018-03-14T10:00:33.091Z,41.81
2018-03-14T10:02:59.191Z,40.89
2018-03-14T10:05:25.230Z,42.15
2018-03-14T10:07:51.293Z,38.02
2018-03-14T10:10:17.586Z,37.69
2018-03-14T10:12:43.717Z,36.35
2018-03-14T10:15:10.240Z,37.56
2018-03-14T10:17:36.282Z,37.32
2018-03-14T10:20:02.309Z,42.81
2018-03-14T10:22:28.367Z,40.31
2018-03-14T10:24:54.367Z,40.17
2018-03-14T10:27:20.369Z,46.74
2018-03-14T10:29:46.394Z,47.34
2018-03-14T10:32:12.443Z,38.11
2018-03-14T10:34:38.498Z,38.82
2018-03-14T10:37:04.851Z,42.47
2018-03-14T10:39:30.840Z,42.79
2018-03-14T10:41:57.034Z,44.18
2018-03-14T10:44:23.315Z,47.76
2018-03-14T10:46:49.310Z,42.10
2018-03-14T10:49:15.429Z,43.03
2018-03-14T10:51:41.652Z,46.71
2018-03-14T10:54:08.003Z,47.50
2018-03-14T10:56:34.035Z,45.62
2018-03-14T10:59:00.049Z,42.22
2018-03-14T11:01:26.197Z,46.98
2018-03-14T11:03:52.191Z,48.33
2018-03-14T11:06:18.177Z,48.43
2018-03-14T11:08:44.179Z,51.70
2018-03-14T11:11:10.230Z,47.31
2018-03-14T11:13:43.948Z,45.56
2018-03-14T11:16:09.915Z,43.48
2018-03-14T11:18:35.915Z,47.56
2018-03-14T11:21:02.052Z,47.29
2018-03-14T11:23:28.643Z,46.94
2018-03-14T11:25:54.668Z,42.86
2018-03-14T11:28:20.671Z,44.22
2018-03-14T11:30:46.653Z,42.28
2018-03-14T11:33:12.869Z,42.19
2018-03-14T11:35:38.871Z,44.06
2018-03-14T11:38:04.894Z,44.42
2018-03-14T11:40:30.959Z,41.13
2018-03-14T11:42:56.956Z,39.46
2018-03-14T11:45:22.953Z,35.26
2018-03-14T11:47:49.039Z,38.20
2018-03-14T11:50:15.166Z,39.21
2018-03-14T11:52:41.175Z,40.05
2018-03-14T11:55:07.178Z,38.78
2018-03-14T11:57:33.233Z,41.41
2018-03-14T11:59:59.406Z,45.35
2018-03-14T12:02:25.417Z,46.04
2018-03-14T12:04:51.419Z,39.78
2018-03-14T12:07:17.630Z,35.84
2018-03-14T12:09:43.798Z,41.38
2018-03-14T12:12:09.841Z,39.93
2018-03-14T12:14:35.823Z,40.52
2018-03-14T12:17:01.989Z,40.47
2018-03-14T12:19:28.035Z,39.22
2018-03-14T12:21:54.102Z,43.58
2018-03-14T12:24:20.105Z,45.21
2018-03-14T12:26:46.144Z,43.36
2018-03-14T12:29:12.163Z,42.89
2018-03-14T12:31:38.221Z,43.05
2018-03-14T12:34:04.398Z,41.58
2018-03-14T12:36:30.394Z,44.32
2018-03-14T12:38:56.467Z,40.70
2018-03-14T12:41:22.467Z,40.38
2018-03-14T12:43:48.506Z,42.22
2018-03-14T12:46:14.581Z,38.66
2018-03-14T12:48:40.654Z,38.13
2018-03-14T12:51:06.671Z,32.00
2018-03-14T12:53:32.685Z,32.01
2018-03-14T12:55:58.718Z,38.56
2018-03-14T12:58:24.762Z,41.60
2018-03-14T13:00:50.798Z,42.54
2018-03-14T13:03:16.834Z,38.64
2018-03-14T13:05:42.815Z,38.36
2018-03-14T13:08:08.849Z,40.06
2018-03-14T13:10:34.853Z,30.24
2018-03-14T13:13:00.875Z,33.92
2018-03-14T13:15:26.933Z,38.08
2018-03-14T13:17:52.958Z,35.30
2018-03-14T13:20:19.045Z,38.48
2018-03-14T13:22:45.077Z,37.30
2018-03-14T13:25:11.199Z,36.73
2018-03-14T13:27:37.399Z,39.40
2018-03-14T13:30:03.673Z,37.46
2018-03-14T13:32:29.911Z,35.56
2018-03-14T13:34:56.157Z,35.39
2018-03-14T13:37:22.178Z,37.39
2018-03-14T13:39:48.237Z,36.33
2018-03-14T13:42:14.271Z,37.10
2018-03-14T13:44:40.267Z,35.88
2018-03-14T13:47:06.317Z,33.20
2018-03-14T13:49:32.355Z,33.02
2018-03-14T13:51:58.382Z,29.97
2018-03-14T13:54:24.404Z,30.26
2018-03-14T13:56:50.441Z,28.85
2018-03-14T13:59:16.561Z,27.42
2018-03-14T14:01:42.605Z,22.63
2018-03-14T14:04:08.611Z,22.73
2018-03-14T14:06:34.614Z,22.26
2018-03-14T14:09:00.699Z,21.16
2018-03-14T14:11:26.680Z,28.71
2018-03-14T14:13:52.717Z,27.11
2018-03-14T14:16:18.744Z,27.40
2018-03-14T14:18:44.762Z,27.71
2018-03-14T14:21:10.778Z,27.14
2018-03-14T14:23:36.847Z,21.07
2018-03-14T14:26:02.888Z,19.39
2018-03-14T14:28:28.953Z,18.61
2018-03-14T14:30:55.036Z,18.24
2018-03-14T14:33:21.065Z,17.05
2018-03-14T14:35:47.117Z,16.46
2018-03-14T14:38:13.255Z,21.41
2018-03-14T14:40:39.370Z,28.02
2018-03-14T14:43:05.474Z,30.74
2018-03-14T14:45:31.508Z,28.33
2018-03-14T14:47:57.621Z,26.48
2018-03-14T14:50:23.674Z,24.88
2018-03-14T14:52:49.770Z,26.22
2018-03-14T14:55:15.796Z,29.90
2018-03-14T14:57:41.856Z,31.43
2018-03-14T15:00:07.904Z,28.71
2018-03-14T15:02:33.966Z,29.11
2018-03-14T15:04:59.999Z,29.72
2018-03-14T15:07:26.174Z,33.35
2018-03-14T15:09:52.274Z,31.81
2018-03-14T15:12:18.276Z,34.93
2018-03-14T15:14:44.349Z,35.00
2018-03-14T15:17:10.823Z,35.53
2018-03-14T15:19:36.918Z,33.53
2018-03-14T15:22:03.704Z,29.34
2018-03-14T15:24:29.751Z,25.26
2018-03-14T15:26:55.884Z,30.00
2018-03-14T15:29:21.939Z,34.17
2018-03-14T15:31:47.955Z,31.44
2018-03-14T15:34:14.341Z,36.11
2018-03-14T15:36:40.450Z,38.08
2018-03-14T15:39:06.862Z,40.30
2018-03-14T15:41:32.886Z,37.41
2018-03-14T15:43:58.915Z,33.03
2018-03-14T15:46:24.934Z,30.22
2018-03-14T15:48:51.013Z,31.09
2018-03-14T15:51:17.091Z,29.38
2018-03-14T15:53:43.206Z,28.67
2018-03-14T15:56:09.236Z,27.70
2018-03-14T15:58:35.313Z,27.28
2018-03-14T16:01:01.444Z,28.77
2018-03-14T16:03:27.614Z,28.03
2018-03-14T16:05:53.657Z,28.32
2018-03-14T16:08:19.713Z,33.58
2018-03-14T16:10:45.804Z,36.20
2018-03-14T16:13:11.856Z,38.25
2018-03-14T16:15:37.909Z,39.86
2018-03-14T16:18:03.982Z,40.99
2018-03-14T16:20:30.031Z,41.51
2018-03-14T16:22:56.151Z,41.87
2018-03-14T16:25:22.175Z,42.46
2018-03-14T16:27:48.200Z,42.90
2018-03-14T16:30:15.095Z,43.42
2018-03-14T16:32:41.124Z,44.08
2018-03-14T16:35:07.248Z,44.38
2018-03-14T16:37:33.284Z,44.53
2018-03-14T16:39:59.333Z,45.03
2018-03-14T16:42:25.473Z,45.93
2018-03-14T16:44:51.538Z,47.72
2018-03-14T16:47:17.605Z,49.12
2018-03-14T16:49:43.688Z,49.50
2018-03-14T16:52:09.702Z,50.52
2018-03-14T16:54:35.817Z,51.89
2018-03-14T16:57:01.962Z,52.03
2018-03-14T16:59:28.040Z,52.80
2018-03-14T17:01:54.094Z,53.19
2018-03-14T17:04:20.254Z,53.69
2018-03-14T17:06:46.343Z,53.93
2018-03-14T17:09:12.341Z,54.54
2018-03-14T17:11:38.377Z,54.98
2018-03-14T17:14:04.476Z,55.13
2018-03-14T17:16:30.530Z,55.27
2018-03-14T17:18:56.567Z,55.93
2018-03-14T17:21:22.641Z,56.16
2018-03-14T17:23:48.677Z,56.08
2018-03-14T17:26:14.749Z,56.62
2018-03-14T17:28:45.014Z,58.48
2018-03-14T17:31:11.168Z,58.74
2018-03-14T17:33:38.218Z,59.26
2018-03-14T17:36:04.286Z,59.74
2018-03-14T17:38:30.359Z,60.04
2018-03-14T17:40:56.542Z,60.26
2018-03-14T17:43:22.725Z,60.18
2018-03-14T17:45:48.790Z,60.61
2018-03-14T17:48:14.878Z,60.46
2018-03-14T17:50:40.956Z,60.57
2018-03-14T17:53:06.958Z,60.40
2018-03-14T17:55:33.143Z,60.30
2018-03-14T17:57:59.415Z,60.22
2018-03-14T18:00:25.500Z,60.54
2018-03-14T18:02:51.726Z,60.73
2018-03-14T18:05:17.790Z,61.50
2018-03-14T18:07:43.827Z,61.88
2018-03-14T18:10:10.078Z,62.16
2018-03-14T18:12:36.166Z,62.42
2018-03-14T18:15:02.237Z,62.95
2018-03-14T18:17:28.251Z,63.35
2018-03-14T18:19:54.275Z,63.67
2018-03-14T18:22:20.379Z,63.81
2018-03-14T18:24:46.397Z,63.90
2018-03-14T18:27:12.401Z,64.33
2018-03-14T18:29:38.436Z,64.35
2018-03-14T18:32:04.431Z,64.78
2018-03-14T18:34:30.489Z,64.41
2018-03-14T18:36:56.479Z,64.98
2018-03-14T18:39:22.491Z,64.59
2018-03-14T18:41:48.504Z,64.99
2018-03-14T18:44:14.502Z,65.08
2018-03-14T18:46:40.513Z,64.86
2018-03-14T18:49:06.543Z,65.20
2018-03-14T18:51:32.604Z,65.08
2018-03-14T18:53:58.603Z,65.61
2018-03-14T18:56:24.660Z,65.63
2018-03-14T18:58:50.799Z,65.25
2018-03-14T19:01:16.940Z,65.47
2018-03-14T19:03:42.957Z,65.26
2018-03-14T19:06:08.970Z,65.30
2018-03-14T19:08:35.019Z,65.09
2018-03-14T19:11:01.118Z,64.85
2018-03-14T19:13:27.129Z,64.94
2018-03-14T19:15:53.246Z,65.08
2018-03-14T19:18:19.382Z,65.18
2018-03-14T19:20:45.443Z,65.19
2018-03-14T19:23:11.520Z,64.97
2018-03-14T19:25:37.776Z,64.84
2018-03-14T19:28:03.860Z,64.89
2018-03-14T19:30:30.469Z,64.72
2018-03-14T19:32:56.484Z,64.63
2018-03-14T19:35:22.486Z,64.62
2018-03-14T19:37:48.492Z,64.65
2018-03-14T19:40:14.653Z,64.98
2018-03-14T19:42:40.726Z,64.95
2018-03-14T19:45:06.814Z,64.99
2018-03-14T19:47:33.169Z,65.32
2018-03-14T19:49:59.396Z,65.07
2018-03-14T19:52:25.611Z,65.29
2018-03-14T19:54:51.909Z,65.19
2018-03-14T19:57:18.126Z,65.31
2018-03-14T19:59:44.229Z,65.71
2018-03-14T20:02:10.282Z,65.83
2018-03-14T20:04:36.748Z,65.63
2018-03-14T20:07:02.995Z,66.09
2018-03-14T20:09:29.101Z,66.04
2018-03-14T20:11:55.231Z,65.98
2018-03-14T20:14:21.437Z,66.27
2018-03-14T20:16:47.498Z,66.36
2018-03-14T20:19:13.653Z,66.43
2018-03-14T20:21:40.065Z,66.77
2018-03-14T20:24:06.073Z,66.78
2018-03-14T20:26:32.086Z,66.70
2018-03-14T20:28:58.472Z,66.86
2018-03-14T20:31:24.511Z,66.93
2018-03-14T20:33:50.660Z,66.67
2018-03-14T20:36:16.691Z,66.94
2018-03-14T20:38:42.725Z,67.13
2018-03-14T20:41:08.875Z,67.00
2018-03-14T20:43:34.975Z,67.64
2018-03-14T20:46:01.079Z,67.30
2018-03-14T20:48:27.495Z,67.19
2018-03-14T20:50:53.554Z,67.28
2018-03-14T20:53:19.664Z,67.52
2018-03-14T20:55:45.782Z,67.52
2018-03-14T20:58:11.910Z,67.84
2018-03-14T21:00:38.090Z,67.62
2018-03-14T21:03:04.301Z,68.11
2018-03-14T21:05:30.380Z,67.68
2018-03-14T21:07:56.419Z,67.66
2018-03-14T21:10:22.452Z,67.99
2018-03-14T21:12:48.564Z,67.88
2018-03-14T21:15:14.777Z,67.92
2018-03-14T21:17:40.790Z,68.23
2018-03-14T21:20:06.824Z,68.24
2018-03-14T21:22:32.857Z,68.29
2018-03-14T21:24:58.867Z,68.32
2018-03-14T21:27:24.979Z,68.48
2018-03-14T21:29:51.025Z,68.51
2018-03-14T21:32:17.054Z,68.63
2018-03-14T21:34:43.059Z,68.68
2018-03-14T21:37:09.083Z,68.77
2018-03-14T21:39:35.113Z,69.15
2018-03-14T21:42:01.345Z,68.93
2018-03-14T21:44:27.530Z,69.03
2018-03-14T21:46:53.728Z,69.08
2018-03-14T21:49:19.939Z,69.36
2018-03-14T21:51:45.983Z,69.56
2018-03-14T21:54:12.007Z,69.55
2018-03-14T21:56:38.262Z,69.80
2018-03-14T21:59:04.257Z,70.02
2018-03-14T22:01:30.288Z,69.84
2018-03-14T22:03:56.330Z,69.82
2018-03-14T22:06:22.563Z,70.11
2018-03-14T22:08:48.543Z,69.97
2018-03-14T22:11:14.539Z,70.17
2018-03-14T22:13:40.575Z,70.08
2018-03-14T22:16:06.610Z,70.41
2018-03-14T22:18:32.627Z,70.44
2018-03-14T22:20:58.652Z,70.53
2018-03-14T22:23:24.688Z,70.96
2018-03-14T22:25:50.734Z,70.85
2018-03-14T22:28:16.760Z,70.87
2018-03-14T22:30:42.753Z,71.08
2018-03-14T22:33:08.735Z,70.89
2018-03-14T22:35:34.754Z,71.11
2018-03-14T22:38:00.778Z,71.11
2018-03-14T22:40:26.824Z,71.35
2018-03-14T22:42:53.126Z,71.21
2018-03-14T22:45:19.175Z,71.37
2018-03-14T22:47:45.340Z,71.33
2018-03-14T22:50:11.430Z,71.73
2018-03-14T22:52:37.489Z,71.75
2018-03-14T22:55:03.635Z,71.92
2018-03-14T22:57:29.674Z,71.95
2018-03-14T22:59:55.716Z,72.23
2018-03-14T23:02:21.878Z,72.01
2018-03-14T23:04:48.018Z,72.25
2018-03-14T23:07:14.560Z,72.12
2018-03-14T23:09:40.961Z,72.06
2018-03-14T23:12:06.953Z,72.45
2018-03-14T23:14:33.123Z,72.39
2018-03-14T23:16:59.695Z,72.37
2018-03-14T23:19:26.009Z,72.68
2018-03-14T23:21:52.058Z,72.66
2018-03-14T23:24:18.058Z,72.77
2018-03-14T23:26:44.090Z,72.82
2018-03-14T23:29:10.138Z,72.89
2018-03-14T23:31:36.187Z,73.10
2018-03-14T23:34:02.183Z,73.19
2018-03-14T23:36:28.247Z,73.08
2018-03-14T23:38:54.327Z,73.20
2018-03-14T23:41:20.397Z,73.25
2018-03-14T23:43:46.513Z,73.37
2018-03-14T23:46:12.544Z,73.40
2018-03-14T23:48:38.622Z,73.63
2018-03-14T23:51:04.679Z,73.42
2018-03-14T23:53:30.714Z,73.63
2018-03-14T23:55:56.707Z,73.60
2018-03-14T23:58:22.726Z,73.48
